createdAt,value
2022-11-15T00:04:16.845Z,95645.77
2022-11-15T00:09:55.211Z,95640.77
2022-11-15T00:15:31.225Z,95639.20
2022-11-15T00:21:09.395Z,95638.92
2022-11-15T00:23:57.529Z,95642.11
2022-11-15T00:29:26.860Z,95641.42
2022-11-15T00:32:15.109Z,95622.55
2022-11-15T00:37:55.645Z,95609.98
2022-11-15T00:40:44.283Z,95611.63
2022-11-15T00:43:44.634Z,95611.95
2022-11-15T00:46:33.281Z,95612.33
2022-11-15T00:52:06.535Z,95618.96
2022-11-15T00:54:55.232Z,95624.36
2022-11-15T00:57:43.205Z,95620.91
2022-11-15T01:00:31.550Z,95632.64
2022-11-15T01:06:02.975Z,95636.00
2022-11-15T01:11:39.642Z,95630.44
2022-11-15T01:17:08.217Z,95627.11
2022-11-15T01:22:37.645Z,95614.58
2022-11-15T01:28:12.844Z,95601.70
2022-11-15T01:33:51.042Z,95588.50
2022-11-15T01:39:22.154Z,95578.98
2022-11-15T01:44:59.869Z,95568.67
2022-11-15T01:47:51.074Z,95566.20
2022-11-15T01:53:26.474Z,95565.00
2022-11-15T01:59:00.369Z,95565.08
2022-11-15T02:01:50.247Z,95560.73
2022-11-15T02:07:26.059Z,95554.98
2022-11-15T02:10:15.696Z,95566.59
2022-11-15T02:15:59.092Z,95544.66
2022-11-15T02:21:29.656Z,95553.16
2022-11-15T02:24:30.753Z,95553.81
2022-11-15T02:28:05.017Z,95560.39
2022-11-15T02:33:45.201Z,95539.02
2022-11-15T02:39:25.883Z,95538.20
2022-11-15T02:45:07.125Z,95527.50
2022-11-15T02:50:36.129Z,95518.47
2022-11-15T02:56:12.650Z,95517.08
2022-11-15T02:59:08.001Z,95520.50
2022-11-15T03:02:06.468Z,95507.62
2022-11-15T03:10:32.128Z,95501.64
2022-11-15T03:13:25.679Z,95504.13
2022-11-15T03:19:04.153Z,95496.44
2022-11-15T03:21:53.545Z,95499.78
2022-11-15T03:24:42.736Z,95497.31
2022-11-15T03:27:33.114Z,95489.13
2022-11-15T03:30:22.008Z,95490.32
2022-11-15T03:35:58.074Z,95489.95
2022-11-15T03:38:47.614Z,95482.73
2022-11-15T03:44:24.184Z,95469.11
2022-11-15T03:52:39.496Z,95486.03
2022-11-15T03:55:27.956Z,95486.13
2022-11-15T03:58:16.369Z,95487.09
2022-11-15T04:03:46.818Z,95488.66
2022-11-15T04:06:35.232Z,95492.39
2022-11-15T04:12:10.121Z,95478.68
2022-11-15T04:17:48.503Z,95470.62
2022-11-15T04:20:54.433Z,95470.44
2022-11-15T04:26:26.949Z,95479.91
2022-11-15T04:29:33.130Z,95482.21
2022-11-15T04:32:21.571Z,95473.08
2022-11-15T04:37:57.622Z,95469.52
2022-11-15T04:40:49.574Z,95468.31
2022-11-15T04:43:37.831Z,95465.30
2022-11-15T04:49:09.991Z,95463.63
2022-11-15T04:51:58.022Z,95461.74
2022-11-15T04:57:29.144Z,95455.47
2022-11-15T05:03:23.371Z,95465.61
2022-11-15T05:06:12.453Z,95454.75
2022-11-15T05:11:43.369Z,95450.23
2022-11-15T05:14:31.801Z,95452.53
2022-11-15T05:20:09.099Z,95439.94
2022-11-15T05:25:39.580Z,95433.11
2022-11-15T05:31:15.508Z,95425.64
2022-11-15T05:36:52.792Z,95426.03
2022-11-15T05:39:43.666Z,95413.35
2022-11-15T05:45:26.581Z,95407.24
2022-11-15T05:48:13.394Z,95409.94
2022-11-15T05:51:04.258Z,95402.63
2022-11-15T05:53:53.574Z,95413.41
2022-11-15T05:56:44.827Z,95403.34
2022-11-15T06:02:24.135Z,95411.64
2022-11-15T06:05:15.735Z,95414.82
2022-11-15T06:08:04.161Z,95415.30
2022-11-15T06:10:53.482Z,95417.34
2022-11-15T06:13:42.153Z,95410.59
2022-11-15T06:16:30.249Z,95410.83
2022-11-15T06:19:19.332Z,95406.38
2022-11-15T06:25:20.157Z,95407.63
2022-11-15T06:30:54.846Z,95409.61
2022-11-15T06:33:43.500Z,95406.86
2022-11-15T06:39:20.119Z,95410.80
2022-11-15T06:44:59.687Z,95406.17
2022-11-15T06:50:34.268Z,95394.38
2022-11-15T06:53:23.777Z,95392.59
2022-11-15T06:56:11.994Z,95392.02
2022-11-15T07:01:44.872Z,95397.81
2022-11-15T07:12:11.988Z,95390.08
2022-11-15T07:15:00.234Z,95404.41
2022-11-15T07:17:49.065Z,95400.38
2022-11-15T07:23:44.287Z,95397.41
2022-11-15T07:29:35.873Z,95395.43
2022-11-15T07:32:23.934Z,95396.11
2022-11-15T07:38:01.101Z,95396.16
2022-11-15T07:43:37.535Z,95401.00
2022-11-15T07:52:36.739Z,95396.19
2022-11-15T08:11:50.236Z,95396.87
2022-11-15T08:14:39.457Z,95394.58
2022-11-15T08:17:28.163Z,95391.11
2022-11-15T08:25:51.969Z,95372.56
2022-11-15T08:31:28.509Z,95381.85
2022-11-15T08:34:18.337Z,95378.10
2022-11-15T08:42:46.440Z,95367.45
2022-11-15T08:48:21.094Z,95365.63
2022-11-15T08:51:09.622Z,95365.97
2022-11-15T08:53:58.294Z,95364.95
2022-11-15T08:56:47.549Z,95375.32
2022-11-15T09:02:23.543Z,95376.65
2022-11-15T09:07:48.882Z,95374.09
2022-11-15T09:10:37.415Z,95377.75
2022-11-15T09:16:13.655Z,95387.47
2022-11-15T09:19:01.986Z,95383.73
2022-11-15T09:21:50.666Z,95381.23
2022-11-15T09:27:24.941Z,95378.59
2022-11-15T09:32:59.580Z,95378.00
2022-11-15T09:35:47.966Z,95379.14
2022-11-15T09:41:54.817Z,95378.00
2022-11-15T09:54:37.473Z,95395.31
2022-11-15T09:59:39.114Z,95378.98
2022-11-15T10:08:18.763Z,95370.22
2022-11-15T10:13:58.175Z,95360.13
2022-11-15T10:19:41.770Z,95349.13
2022-11-15T10:25:20.671Z,95338.23
2022-11-15T10:33:42.662Z,95341.60
2022-11-15T10:39:16.924Z,95337.34
2022-11-15T10:45:25.208Z,95345.50
2022-11-15T10:51:13.277Z,95336.75
2022-11-15T10:56:54.039Z,95323.84
2022-11-15T11:02:36.561Z,95328.48
2022-11-15T11:08:25.590Z,95326.48
2022-11-15T11:13:54.146Z,95314.73
2022-11-15T11:19:51.593Z,95284.68
2022-11-15T11:25:30.589Z,95281.45
2022-11-15T11:31:17.354Z,95270.55
2022-11-15T11:36:55.781Z,95255.06
2022-11-15T11:42:38.081Z,95242.75
2022-11-15T11:51:02.549Z,95216.09
2022-11-15T11:56:48.206Z,95213.58
2022-11-15T12:02:29.997Z,95198.94
2022-11-15T12:08:25.024Z,95192.02
2022-11-15T12:14:06.238Z,95182.66
2022-11-15T12:19:45.597Z,95192.27
2022-11-15T12:25:29.950Z,95200.06
2022-11-15T12:31:15.015Z,95186.97
2022-11-15T12:38:10.938Z,95164.06
2022-11-15T12:44:06.261Z,95170.65
2022-11-15T12:49:50.215Z,95166.08
2022-11-15T12:58:45.447Z,95143.25
2022-11-15T13:05:19.194Z,95133.52
2022-11-15T13:10:57.132Z,95132.16
2022-11-15T13:16:30.346Z,95115.63
2022-11-15T13:19:18.475Z,95120.72
2022-11-15T13:24:49.085Z,95106.53
2022-11-15T13:30:24.636Z,95087.38
2022-11-15T13:36:05.686Z,95080.28
2022-11-15T13:41:53.326Z,95066.27
2022-11-15T13:47:30.027Z,95067.84
2022-11-15T13:53:08.028Z,95051.48
2022-11-15T13:58:48.646Z,95048.44
2022-11-15T14:01:37.585Z,95046.49
2022-11-15T14:07:17.598Z,95038.58
2022-11-15T14:16:36.203Z,95043.24
2022-11-15T14:19:39.342Z,95045.28
2022-11-15T14:25:23.913Z,95043.23
2022-11-15T14:28:18.772Z,95040.66
2022-11-15T14:33:51.348Z,95018.22
2022-11-15T14:36:40.087Z,95017.56
2022-11-15T14:39:28.875Z,95013.71
2022-11-15T14:47:43.717Z,94984.16
2022-11-15T14:53:18.977Z,94965.56
2022-11-15T14:56:07.777Z,94964.92
2022-11-15T15:04:30.865Z,94984.23
2022-11-15T15:15:41.545Z,94973.95
2022-11-15T15:18:29.792Z,94969.01
2022-11-15T15:24:10.779Z,94962.30
2022-11-15T15:29:43.623Z,94949.99
2022-11-15T15:32:32.070Z,94950.05
2022-11-15T15:38:06.307Z,94943.42
2022-11-15T15:43:41.183Z,94935.13
2022-11-15T15:49:16.285Z,94923.70
2022-11-15T15:52:05.613Z,94913.59
2022-11-15T15:57:42.499Z,94892.82
2022-11-15T16:03:13.168Z,94883.33
2022-11-15T16:09:00.291Z,94885.68
2022-11-15T16:14:12.815Z,94885.61
2022-11-15T16:19:46.445Z,94864.89
2022-11-15T16:25:13.497Z,94849.13
2022-11-15T16:28:01.795Z,94838.19
2022-11-15T16:33:28.226Z,94843.35
2022-11-15T16:38:58.402Z,94842.13
2022-11-15T16:44:33.418Z,94830.55
2022-11-15T16:52:57.243Z,94824.55
2022-11-15T16:58:33.599Z,94822.11
2022-11-15T17:04:13.285Z,94824.33
2022-11-15T17:07:01.451Z,94821.48
2022-11-15T17:09:50.556Z,94815.57
2022-11-15T17:15:21.278Z,94804.78
2022-11-15T17:20:53.383Z,94810.43
2022-11-15T17:26:32.998Z,94804.55
2022-11-15T17:34:39.827Z,94805.86
2022-11-15T17:42:54.833Z,94806.27
2022-11-15T17:49:06.829Z,94800.78
2022-11-15T17:57:51.911Z,94794.78
2022-11-15T18:01:26.379Z,94784.94
2022-11-15T18:07:02.132Z,94762.88
2022-11-15T18:09:50.768Z,94756.66
2022-11-15T18:15:19.132Z,94750.66
2022-11-15T18:18:11.444Z,94749.09
2022-11-15T18:21:04.906Z,94746.11
2022-11-15T18:29:21.785Z,94734.25
2022-11-15T18:32:13.732Z,94735.39
2022-11-15T18:37:41.777Z,94725.20
2022-11-15T18:40:30.145Z,94718.91
2022-11-15T18:46:09.929Z,94714.64
2022-11-15T18:51:46.372Z,94709.28
2022-11-15T18:57:12.821Z,94698.86
2022-11-15T19:02:48.781Z,94694.36
2022-11-15T19:08:18.321Z,94689.30
2022-11-15T19:13:57.440Z,94682.67
2022-11-15T19:16:49.877Z,94680.17
2022-11-15T19:24:58.361Z,94663.48
2022-11-15T19:30:26.176Z,94659.98
2022-11-15T19:33:14.533Z,94654.19
2022-11-15T19:38:50.436Z,94644.64
2022-11-15T19:41:42.304Z,94645.84
2022-11-15T19:44:30.609Z,94639.77
2022-11-15T19:47:20.772Z,94644.95
2022-11-15T19:50:13.078Z,94636.82
2022-11-15T19:55:55.654Z,94626.27
2022-11-15T19:58:47.269Z,94635.59
2022-11-15T20:01:39.444Z,94632.51
2022-11-15T20:04:31.164Z,94627.33
2022-11-15T20:10:07.105Z,94628.81
2022-11-15T20:15:45.163Z,94635.77
2022-11-15T20:24:01.228Z,94655.98
2022-11-15T20:35:09.743Z,94644.41
2022-11-15T20:40:57.408Z,94646.42
2022-11-15T20:46:24.452Z,94658.84
2022-11-15T20:54:42.898Z,94663.28
2022-11-15T20:57:31.491Z,94662.05
2022-11-15T21:00:23.986Z,94666.93
2022-11-15T21:03:12.849Z,94671.23
2022-11-15T21:08:59.796Z,94679.11
2022-11-15T21:12:05.991Z,94677.97
2022-11-15T21:14:58.788Z,94678.52
2022-11-15T21:20:35.581Z,94672.14
2022-11-15T21:26:05.660Z,94669.27
2022-11-15T21:34:35.195Z,94666.02
2022-11-15T21:40:13.521Z,94657.80
2022-11-15T21:45:46.711Z,94669.87
2022-11-15T21:48:39.546Z,94669.42
2022-11-15T21:51:28.955Z,94670.05
2022-11-15T21:54:18.676Z,94661.71
2022-11-15T22:00:22.626Z,94668.89
2022-11-15T22:05:55.213Z,94665.81
2022-11-15T22:11:35.378Z,94658.28
2022-11-15T22:14:26.862Z,94661.05
2022-11-15T22:20:16.589Z,94663.91
2022-11-15T22:22:53.411Z,94660.47
2022-11-15T22:28:28.565Z,94661.28
2022-11-15T22:34:10.359Z,94669.22
2022-11-15T22:39:47.779Z,94668.56
2022-11-15T22:45:25.154Z,94651.84
2022-11-15T22:51:00.353Z,94647.73
2022-11-15T22:53:51.787Z,94646.23
2022-11-15T22:59:26.016Z,94641.96
2022-11-15T23:05:00.653Z,94633.61
2022-11-15T23:07:52.054Z,94634.75
2022-11-15T23:13:31.853Z,94634.94
2022-11-15T23:16:23.389Z,94629.45
2022-11-15T23:19:13.185Z,94627.59
2022-11-15T23:22:19.135Z,94632.63
2022-11-15T23:27:49.984Z,94618.48
2022-11-15T23:33:46.888Z,94612.87
2022-11-15T23:39:20.553Z,94614.01
2022-11-15T23:42:11.042Z,94611.52
2022-11-15T23:44:59.400Z,94610.64
2022-11-15T23:47:47.770Z,94612.87
2022-11-15T23:53:27.470Z,94617.70
2022-11-15T23:56:18.533Z,94614.85
